East Braintree, Massachusetts
Current Conditions -  °F | °C
As of 4:53 PM on Monday 26 Jan 2015 (Local Time) from KOWD Reporting Station
Light Snow Light Snow  
Wind Chill: 19°   Ceiling: 1800
Heat Index: 28°   Visibility: 1.5mi
Dew Point: 23°   Wind: 10mph
Humidity: 81%   Direction: 50°NE
Pressure: 30.02"   Gusts: NA
Location:  42.2036°N, 71.0017°W
Report Text: KOWD 262153Z 05009KT 1 1/2SM -SN OVC018 M02/M05 A3002 RMK AO2 SLP164 P0000 T10221050
Loading
Personal Weather Stations






























Interactive Weather Map New forecast layout! Learn more

10-Day Weather Forecast

Advertisements
Track Severe Weather on mobile